SBGO/GYN METAR and TAF weather

Enter ICAO airport designator
Station Type Date Time Source
SBGO METAR 2020/07/08 01:00 UTC NOAA

SBGO 080100Z 32004KT CAVOK 18/15 Q1017


Station Type Date Time Source
SBGO Decoded METAR 2020/07/08 01:00 UTC NOAA

Goiania Aeroporto , Brazil (SBGO) 16-38S 049-13W
Jul 07, 2020 - 09:00 PM EDT / 2020.07.08 0100 UTC
Wind: from the NW (320 degrees) at 5 MPH (4 KT):0
Visibility: greater than 7 mile(s):0
Temperature: 64 F (18 C)
Dew Point: 59 F (15 C)
Relative Humidity: 82%
Pressure (altimeter): 30.03 in. Hg (1017 hPa)
ob: SBGO 080100Z 32004KT CAVOK 18/15 Q1017
cycle: 1

Station Type Date Time Source
SBGO TAF 2020/07/08 00:00 UTC NOAA

TAF SBGO 072100Z 0800/0824 35006KT CAVOK TN16/0808Z TX30/0817Z
BECMG 0820/0822 22004KT
RMK PCX

Example: see airport list